CMP203 SKCG-MPTO
Flight info
| Callsign | CMP203 |
|---|---|
| Flight time | N/A |
| Altitude | 24000 |
| Route | CTG2D CTG A574 UGSAT BOGAL PONPO MEVID1 |
| Aircraft | B38M/M-SDE3FGHIRWY/S |
Departure
| Time | 2026-05-07 03:38 |
|---|---|
| Airport | Rafael Nuñez International Airport (SKCG) |
Arrival
| Time | N/A |
|---|---|
| Airport | Tocumen International Airport (MPTO) |
| Time | Latitude | Longitude | Altitude | Speed | Heading |
|---|---|---|---|---|---|
| 2026-05-07 03:07 | 10.44648 | -75.51543 | 19 ft | 0 kts | 272° |
| 2026-05-07 03:28 | 10.44648 | -75.51529 | 19 ft | 4 kts | 272° |
| 2026-05-07 03:28 | 10.44647 | -75.51504 | 19 ft | 1 kts | 273° |
| 2026-05-07 03:28 | 10.44644 | -75.51481 | 19 ft | 4 kts | 285° |
| 2026-05-07 03:29 | 10.44631 | -75.51462 | 19 ft | 3 kts | 341° |
| 2026-05-07 03:29 | 10.44608 | -75.51459 | 19 ft | 4 kts | 7° |
| 2026-05-07 03:29 | 10.44593 | -75.51460 | 19 ft | 0 kts | 2° |
| 2026-05-07 03:31 | 10.44594 | -75.51460 | 19 ft | 1 kts | 2° |
| 2026-05-07 03:32 | 10.44607 | -75.51458 | 19 ft | 1 kts | 17° |
| 2026-05-07 03:32 | 10.44608 | -75.51457 | 19 ft | 0 kts | 19° |
| 2026-05-07 03:32 | 10.44614 | -75.51454 | 19 ft | 0 kts | 29° |
| 2026-05-07 03:33 | 10.44625 | -75.51440 | 19 ft | 9 kts | 63° |
| 2026-05-07 03:33 | 10.44634 | -75.51403 | 19 ft | 1 kts | 81° |
| 2026-05-07 03:33 | 10.44641 | -75.51376 | 19 ft | 0 kts | 70° |
| 2026-05-07 03:35 | 10.44648 | -75.51324 | 19 ft | 20 kts | 95° |
| 2026-05-07 03:36 | 10.44464 | -75.51281 | 20 ft | 42 kts | 182° |
| 2026-05-07 03:36 | 10.44116 | -75.51299 | 15 ft | 54 kts | 182° |
| 2026-05-07 03:36 | 10.43742 | -75.51307 | 17 ft | 54 kts | 181° |
| 2026-05-07 03:36 | 10.43413 | -75.51322 | 22 ft | 36 kts | 183° |
| 2026-05-07 03:37 | 10.43220 | -75.51333 | 21 ft | 25 kts | 183° |
| 2026-05-07 03:37 | 10.43112 | -75.51336 | 20 ft | 11 kts | 168° |
| 2026-05-07 03:37 | 10.43075 | -75.51269 | 21 ft | 16 kts | 77° |
| 2026-05-07 03:37 | 10.43198 | -75.51294 | 20 ft | 39 kts | 317° |
| 2026-05-07 03:38 | 10.43697 | -75.51314 | 17 ft | 106 kts | 2° |
| 2026-05-07 03:38 | 10.44629 | -75.51279 | 21 ft | 159 kts | 5° |
| 2026-05-07 03:38 | 10.45815 | -75.51247 | 330 ft | 177 kts | 2° |
| 2026-05-07 03:38 | 10.47000 | -75.51210 | 1177 ft | 166 kts | 3° |
| 2026-05-07 03:39 | 10.48180 | -75.51163 | 1720 ft | 177 kts | 2° |
| 2026-05-07 03:39 | 10.49485 | -75.51114 | 2137 ft | 197 kts | 2° |
| 2026-05-07 03:39 | 10.50935 | -75.51061 | 2459 ft | 226 kts | 2° |
| 2026-05-07 03:39 | 10.52600 | -75.51008 | 3003 ft | 244 kts | 0° |
| 2026-05-07 03:40 | 10.54263 | -75.51431 | 3560 ft | 260 kts | 328° |
| 2026-05-07 03:40 | 10.55518 | -75.52776 | 4267 ft | 270 kts | 301° |
| 2026-05-07 03:40 | 10.56126 | -75.54630 | 4782 ft | 288 kts | 273° |
| 2026-05-07 03:40 | 10.55717 | -75.56653 | 5208 ft | 304 kts | 242° |
| 2026-05-07 03:41 | 10.54412 | -75.58391 | 5679 ft | 316 kts | 229° |
| 2026-05-07 03:41 | 10.52984 | -75.60137 | 6250 ft | 326 kts | 230° |
| 2026-05-07 03:41 | 10.51542 | -75.61930 | 6934 ft | 329 kts | 230° |
| 2026-05-07 03:41 | 10.50085 | -75.63743 | 7609 ft | 333 kts | 230° |
| 2026-05-07 03:42 | 10.48616 | -75.65576 | 8253 ft | 336 kts | 230° |
| 2026-05-07 03:42 | 10.47132 | -75.67429 | 8874 ft | 340 kts | 229° |
| 2026-05-07 03:42 | 10.45627 | -75.69305 | 9471 ft | 344 kts | 229° |
| 2026-05-07 03:42 | 10.44110 | -75.71204 | 10072 ft | 347 kts | 229° |
| 2026-05-07 03:43 | 10.42583 | -75.73113 | 10675 ft | 350 kts | 229° |
| 2026-05-07 03:43 | 10.41042 | -75.75039 | 11323 ft | 352 kts | 229° |
| 2026-05-07 03:43 | 10.39495 | -75.76973 | 11988 ft | 355 kts | 230° |
| 2026-05-07 03:43 | 10.37927 | -75.78931 | 12696 ft | 358 kts | 230° |
| 2026-05-07 03:44 | 10.36367 | -75.80879 | 13363 ft | 362 kts | 230° |
| 2026-05-07 03:44 | 10.34765 | -75.82876 | 14030 ft | 367 kts | 230° |
| 2026-05-07 03:44 | 10.33145 | -75.84900 | 14691 ft | 372 kts | 230° |
| 2026-05-07 03:44 | 10.31505 | -75.86946 | 15375 ft | 376 kts | 230° |
| 2026-05-07 03:45 | 10.29841 | -75.89019 | 16030 ft | 381 kts | 230° |
| 2026-05-07 03:45 | 10.28161 | -75.91115 | 16658 ft | 385 kts | 230° |
| 2026-05-07 03:45 | 10.26463 | -75.93232 | 17267 ft | 389 kts | 230° |
| 2026-05-07 03:45 | 10.24743 | -75.95375 | 17859 ft | 394 kts | 230° |
| 2026-05-07 03:46 | 10.23004 | -75.97541 | 18435 ft | 398 kts | 230° |
| 2026-05-07 03:46 | 10.21241 | -75.99736 | 18969 ft | 402 kts | 230° |
| 2026-05-07 03:46 | 10.19465 | -76.01946 | 19522 ft | 406 kts | 230° |
| 2026-05-07 03:46 | 10.17672 | -76.04178 | 20010 ft | 410 kts | 231° |
| 2026-05-07 03:47 | 10.15859 | -76.06433 | 20543 ft | 413 kts | 230° |
| 2026-05-07 03:47 | 10.14037 | -76.08699 | 21016 ft | 417 kts | 230° |
| 2026-05-07 03:47 | 10.12192 | -76.10993 | 21488 ft | 421 kts | 231° |
| 2026-05-07 03:47 | 10.10338 | -76.13298 | 21964 ft | 424 kts | 231° |
| 2026-05-07 03:48 | 10.08467 | -76.15624 | 22404 ft | 427 kts | 231° |
| 2026-05-07 03:48 | 10.06582 | -76.17966 | 22828 ft | 430 kts | 231° |
| 2026-05-07 03:48 | 10.04679 | -76.20330 | 23246 ft | 433 kts | 231° |
| 2026-05-07 03:48 | 10.02764 | -76.22708 | 23659 ft | 436 kts | 231° |
| 2026-05-07 03:49 | 10.00838 | -76.25100 | 24047 ft | 440 kts | 231° |
| 2026-05-07 03:49 | 9.98917 | -76.27484 | 24427 ft | 443 kts | 231° |
| 2026-05-07 03:49 | 9.96963 | -76.29908 | 24825 ft | 445 kts | 231° |
| 2026-05-07 03:49 | 9.94995 | -76.32350 | 25201 ft | 448 kts | 231° |
| 2026-05-07 03:50 | 9.93020 | -76.34800 | 25593 ft | 450 kts | 231° |
| 2026-05-07 03:50 | 9.91242 | -76.37414 | 25959 ft | 451 kts | 244° |
| 2026-05-07 03:50 | 9.90099 | -76.40370 | 26334 ft | 452 kts | 251° |
| 2026-05-07 03:50 | 9.89062 | -76.43395 | 26650 ft | 456 kts | 252° |
| 2026-05-07 03:51 | 9.88040 | -76.46442 | 27036 ft | 457 kts | 252° |
| 2026-05-07 03:51 | 9.87029 | -76.49509 | 27375 ft | 460 kts | 252° |
| 2026-05-07 03:51 | 9.86019 | -76.52596 | 27713 ft | 462 kts | 252° |
| 2026-05-07 03:51 | 9.85006 | -76.55699 | 28045 ft | 465 kts | 252° |
| 2026-05-07 03:52 | 9.83989 | -76.58817 | 28410 ft | 466 kts | 252° |
| 2026-05-07 03:52 | 9.82968 | -76.61947 | 28728 ft | 469 kts | 252° |
| 2026-05-07 03:52 | 9.81942 | -76.65087 | 29026 ft | 471 kts | 252° |
| 2026-05-07 03:52 | 9.80921 | -76.68215 | 29352 ft | 473 kts | 252° |
| 2026-05-07 03:53 | 9.79885 | -76.71386 | 29665 ft | 475 kts | 252° |
| 2026-05-07 03:53 | 9.78844 | -76.74570 | 29958 ft | 477 kts | 252° |
| 2026-05-07 03:53 | 9.77795 | -76.77779 | 30255 ft | 479 kts | 252° |
| 2026-05-07 03:53 | 9.76747 | -76.80985 | 30588 ft | 480 kts | 252° |
| 2026-05-07 03:54 | 9.75697 | -76.84194 | 30907 ft | 481 kts | 252° |
| 2026-05-07 03:54 | 9.74642 | -76.87418 | 31219 ft | 482 kts | 252° |
| 2026-05-07 03:54 | 9.73586 | -76.90643 | 31506 ft | 483 kts | 252° |
| 2026-05-07 03:54 | 9.72524 | -76.93887 | 31780 ft | 485 kts | 252° |
| 2026-05-07 03:55 | 9.71459 | -76.97138 | 31927 ft | 486 kts | 252° |
| 2026-05-07 03:55 | 9.69331 | -77.03629 | 31917 ft | 484 kts | 252° |
| 2026-05-07 03:56 | 9.67221 | -77.10061 | 31918 ft | 484 kts | 252° |
| 2026-05-07 03:56 | 9.65095 | -77.16539 | 31918 ft | 484 kts | 252° |
| 2026-05-07 03:57 | 9.62968 | -77.23012 | 31917 ft | 484 kts | 252° |
| 2026-05-07 03:57 | 9.60837 | -77.29499 | 31909 ft | 484 kts | 252° |
| 2026-05-07 03:58 | 9.58706 | -77.35979 | 31911 ft | 485 kts | 252° |
| 2026-05-07 03:58 | 9.56497 | -77.42438 | 31914 ft | 485 kts | 249° |
| 2026-05-07 03:59 | 9.54047 | -77.48813 | 31917 ft | 486 kts | 249° |
| 2026-05-07 03:59 | 9.51624 | -77.55204 | 31919 ft | 486 kts | 249° |
| 2026-05-07 04:00 | 9.49214 | -77.61562 | 31916 ft | 486 kts | 249° |
| 2026-05-07 04:00 | 9.46790 | -77.67953 | 31919 ft | 486 kts | 249° |
| 2026-05-07 04:01 | 9.44368 | -77.74337 | 31918 ft | 486 kts | 249° |
| 2026-05-07 04:01 | 9.41940 | -77.80733 | 31915 ft | 486 kts | 249° |
| 2026-05-07 04:02 | 9.39516 | -77.87114 | 31770 ft | 482 kts | 249° |
| 2026-05-07 04:02 | 9.38318 | -77.90266 | 31096 ft | 479 kts | 249° |
| 2026-05-07 04:02 | 9.37123 | -77.93409 | 30377 ft | 477 kts | 249° |
| 2026-05-07 04:02 | 9.35920 | -77.96572 | 29630 ft | 484 kts | 249° |
| 2026-05-07 04:03 | 9.34709 | -77.99756 | 28878 ft | 486 kts | 249° |
| 2026-05-07 04:03 | 9.33494 | -78.02950 | 28121 ft | 485 kts | 249° |
| 2026-05-07 04:03 | 9.32281 | -78.06137 | 27371 ft | 484 kts | 249° |
| 2026-05-07 04:03 | 9.31084 | -78.09280 | 26618 ft | 485 kts | 249° |
| 2026-05-07 04:04 | 9.29872 | -78.12464 | 25848 ft | 485 kts | 249° |
| 2026-05-07 04:04 | 9.28658 | -78.15651 | 25072 ft | 484 kts | 249° |
| 2026-05-07 04:04 | 9.27448 | -78.18829 | 24290 ft | 484 kts | 250° |
| 2026-05-07 04:04 | 9.26294 | -78.22029 | 23511 ft | 483 kts | 251° |
| 2026-05-07 04:05 | 9.25150 | -78.25220 | 22811 ft | 481 kts | 250° |
| 2026-05-07 04:05 | 9.24012 | -78.28381 | 22191 ft | 476 kts | 250° |
| 2026-05-07 04:05 | 9.22883 | -78.31514 | 21570 ft | 472 kts | 250° |
| 2026-05-07 04:05 | 9.21760 | -78.34627 | 20952 ft | 468 kts | 250° |
| 2026-05-07 04:06 | 9.20646 | -78.37715 | 20337 ft | 464 kts | 250° |
| 2026-05-07 04:06 | 9.19546 | -78.40763 | 19757 ft | 459 kts | 250° |
| 2026-05-07 04:06 | 9.18453 | -78.43792 | 19177 ft | 455 kts | 250° |
| 2026-05-07 04:06 | 9.17373 | -78.46784 | 18606 ft | 450 kts | 250° |
| 2026-05-07 04:07 | 9.16295 | -78.49673 | 18664 ft | 430 kts | 245° |
| 2026-05-07 04:07 | 9.14835 | -78.52262 | 18629 ft | 422 kts | 239° |
| 2026-05-07 04:07 | 9.13390 | -78.54802 | 18600 ft | 422 kts | 239° |
| 2026-05-07 04:07 | 9.11932 | -78.57377 | 18603 ft | 422 kts | 239° |
| 2026-05-07 04:08 | 9.10492 | -78.59912 | 18601 ft | 408 kts | 239° |
| 2026-05-07 04:08 | 9.09104 | -78.62357 | 18582 ft | 393 kts | 239° |
| 2026-05-07 04:08 | 9.07764 | -78.64714 | 18534 ft | 380 kts | 239° |
| 2026-05-07 04:08 | 9.06465 | -78.66999 | 18490 ft | 367 kts | 239° |
| 2026-05-07 04:09 | 9.05216 | -78.69198 | 18434 ft | 355 kts | 239° |
| 2026-05-07 04:09 | 9.04005 | -78.71326 | 18329 ft | 345 kts | 239° |
| 2026-05-07 04:09 | 9.02826 | -78.73401 | 18262 ft | 333 kts | 239° |
| 2026-05-07 04:09 | 9.01686 | -78.75408 | 18043 ft | 327 kts | 239° |
| 2026-05-07 04:10 | 9.00551 | -78.77403 | 17989 ft | 328 kts | 239° |
| 2026-05-07 04:10 | 8.99413 | -78.79403 | 17997 ft | 329 kts | 239° |
| 2026-05-07 04:10 | 8.98271 | -78.81411 | 17996 ft | 329 kts | 239° |
| 2026-05-07 04:10 | 8.97144 | -78.83394 | 17989 ft | 329 kts | 239° |
| 2026-05-07 04:11 | 8.96003 | -78.85399 | 17991 ft | 329 kts | 239° |
| 2026-05-07 04:11 | 8.94862 | -78.87405 | 17987 ft | 329 kts | 239° |
| 2026-05-07 04:11 | 8.93719 | -78.89414 | 17989 ft | 329 kts | 239° |
| 2026-05-07 04:11 | 8.92579 | -78.91417 | 17987 ft | 329 kts | 239° |
| 2026-05-07 04:12 | 8.91435 | -78.93428 | 17987 ft | 329 kts | 239° |
| 2026-05-07 04:12 | 8.90295 | -78.95430 | 17989 ft | 329 kts | 239° |
| 2026-05-07 04:12 | 8.89153 | -78.97437 | 17994 ft | 329 kts | 239° |
| 2026-05-07 04:12 | 8.88012 | -78.99440 | 17993 ft | 329 kts | 239° |
| 2026-05-07 04:13 | 8.86871 | -79.01444 | 17994 ft | 329 kts | 239° |
| 2026-05-07 04:13 | 8.85726 | -79.03454 | 17994 ft | 330 kts | 239° |
| 2026-05-07 04:13 | 8.84581 | -79.05464 | 17996 ft | 330 kts | 239° |
| 2026-05-07 04:13 | 8.83435 | -79.07475 | 18000 ft | 330 kts | 239° |
| 2026-05-07 04:14 | 8.82288 | -79.09486 | 17991 ft | 330 kts | 239° |
| 2026-05-07 04:14 | 8.81159 | -79.11468 | 17996 ft | 330 kts | 239° |
| 2026-05-07 04:14 | 8.80013 | -79.13479 | 17996 ft | 330 kts | 239° |
| 2026-05-07 04:14 | 8.78865 | -79.15492 | 17994 ft | 330 kts | 239° |
| 2026-05-07 04:15 | 8.77720 | -79.17499 | 17995 ft | 330 kts | 239° |
| 2026-05-07 04:15 | 8.76572 | -79.19513 | 18001 ft | 330 kts | 239° |
| 2026-05-07 04:15 | 8.75428 | -79.21518 | 17993 ft | 330 kts | 239° |
| 2026-05-07 04:15 | 8.74281 | -79.23529 | 17998 ft | 330 kts | 239° |
| 2026-05-07 04:16 | 8.73134 | -79.25540 | 17999 ft | 330 kts | 239° |
| 2026-05-07 04:16 | 8.71990 | -79.27546 | 17992 ft | 330 kts | 239° |
| 2026-05-07 04:16 | 8.71011 | -79.29633 | 17980 ft | 329 kts | 254° |
| 2026-05-07 04:16 | 8.70767 | -79.31918 | 17985 ft | 328 kts | 277° |
| 2026-05-07 04:17 | 8.71057 | -79.33403 | 17986 ft | 326 kts | 291° |
| 2026-05-07 04:17 | 8.72125 | -79.35393 | 17994 ft | 321 kts | 313° |
| 2026-05-07 04:17 | 8.73809 | -79.36802 | 17982 ft | 313 kts | 337° |
| 2026-05-07 04:17 | 8.75841 | -79.37404 | 17994 ft | 305 kts | 360° |
| 2026-05-07 04:18 | 8.77919 | -79.37212 | 17993 ft | 299 kts | 20° |
| 2026-05-07 04:18 | 8.79766 | -79.36309 | 17994 ft | 294 kts | 39° |
| 2026-05-07 04:18 | 8.81172 | -79.34847 | 17989 ft | 290 kts | 58° |
| 2026-05-07 04:18 | 8.82011 | -79.33001 | 17988 ft | 289 kts | 76° |
| 2026-05-07 04:19 | 8.82214 | -79.30988 | 17994 ft | 290 kts | 92° |
| 2026-05-07 04:19 | 8.82066 | -79.28948 | 17996 ft | 292 kts | 94° |
| 2026-05-07 04:19 | 8.81849 | -79.26907 | 17999 ft | 292 kts | 96° |
| 2026-05-07 04:19 | 8.81471 | -79.24893 | 17993 ft | 292 kts | 103° |
| 2026-05-07 04:20 | 8.80992 | -79.22893 | 18002 ft | 293 kts | 101° |
| 2026-05-07 04:20 | 8.80563 | -79.20887 | 17998 ft | 292 kts | 100° |
| 2026-05-07 04:20 | 8.80147 | -79.18878 | 17999 ft | 292 kts | 101° |
| 2026-05-07 04:21 | 8.77907 | -79.15555 | 17993 ft | 301 kts | 148° |
| 2026-05-07 04:21 | 8.75916 | -79.14933 | 17990 ft | 309 kts | 173° |
| 2026-05-07 04:21 | 8.73789 | -79.15231 | 17985 ft | 317 kts | 198° |
| 2026-05-07 04:21 | 8.71898 | -79.16415 | 17989 ft | 324 kts | 223° |
| 2026-05-07 04:22 | 8.70596 | -79.18268 | 17986 ft | 327 kts | 247° |
| 2026-05-07 04:22 | 8.70121 | -79.20502 | 17989 ft | 327 kts | 273° |
| 2026-05-07 04:22 | 8.70444 | -79.22768 | 18008 ft | 328 kts | 281° |
| 2026-05-07 04:22 | 8.70819 | -79.25054 | 17998 ft | 329 kts | 281° |
| 2026-05-07 04:23 | 8.71199 | -79.27338 | 17993 ft | 329 kts | 281° |
| 2026-05-07 04:23 | 8.71656 | -79.29601 | 17986 ft | 327 kts | 291° |
| 2026-05-07 04:23 | 8.72742 | -79.31575 | 17991 ft | 320 kts | 315° |
| 2026-05-07 04:23 | 8.74451 | -79.32968 | 17993 ft | 313 kts | 337° |
| 2026-05-07 04:24 | 8.76500 | -79.33591 | 17998 ft | 305 kts | 359° |
| 2026-05-07 04:24 | 8.78575 | -79.33385 | 17993 ft | 298 kts | 21° |
| 2026-05-07 04:24 | 8.80373 | -79.32410 | 17996 ft | 293 kts | 43° |
| 2026-05-07 04:24 | 8.81641 | -79.30834 | 17987 ft | 289 kts | 65° |
| 2026-05-07 04:25 | 8.82178 | -79.28937 | 17995 ft | 289 kts | 86° |
| 2026-05-07 04:25 | 8.82015 | -79.26914 | 18005 ft | 291 kts | 98° |
| 2026-05-07 04:25 | 8.81570 | -79.24919 | 17997 ft | 292 kts | 104° |
| 2026-05-07 04:25 | 8.81037 | -79.22930 | 18003 ft | 293 kts | 102° |
| 2026-05-07 04:26 | 8.80563 | -79.20925 | 17998 ft | 292 kts | 101° |
| 2026-05-07 04:26 | 8.80118 | -79.18919 | 17998 ft | 293 kts | 102° |
| 2026-05-07 04:26 | 8.79350 | -79.17023 | 17983 ft | 294 kts | 123° |
| 2026-05-07 04:26 | 8.77827 | -79.15630 | 17988 ft | 301 kts | 149° |
| 2026-05-07 04:27 | 8.75804 | -79.15045 | 17989 ft | 310 kts | 175° |
| 2026-05-07 04:27 | 8.73661 | -79.15398 | 17995 ft | 318 kts | 200° |
| 2026-05-07 04:27 | 8.71799 | -79.16631 | 17994 ft | 324 kts | 224° |
| 2026-05-07 04:27 | 8.70544 | -79.18520 | 17990 ft | 327 kts | 248° |
| 2026-05-07 04:28 | 8.70136 | -79.20768 | 17991 ft | 327 kts | 275° |
| 2026-05-07 04:28 | 8.70489 | -79.23037 | 18001 ft | 328 kts | 281° |
| 2026-05-07 04:28 | 8.70862 | -79.25319 | 17996 ft | 329 kts | 281° |
| 2026-05-07 04:28 | 8.71238 | -79.27570 | 17998 ft | 329 kts | 281° |
| 2026-05-07 04:29 | 8.71739 | -79.29849 | 17978 ft | 327 kts | 294° |
| 2026-05-07 04:29 | 8.72886 | -79.31751 | 17984 ft | 320 kts | 317° |
| 2026-05-07 04:29 | 8.74643 | -79.33069 | 17996 ft | 312 kts | 340° |
| 2026-05-07 04:29 | 8.76712 | -79.33603 | 17990 ft | 304 kts | 2° |
| 2026-05-07 04:30 | 8.78770 | -79.33300 | 17992 ft | 297 kts | 24° |
| 2026-05-07 04:30 | 8.80510 | -79.32240 | 17995 ft | 292 kts | 46° |
| 2026-05-07 04:30 | 8.81689 | -79.30598 | 17995 ft | 289 kts | 68° |
| 2026-05-07 04:30 | 8.82161 | -79.28635 | 17997 ft | 289 kts | 88° |
| 2026-05-07 04:31 | 8.81977 | -79.26609 | 18005 ft | 291 kts | 98° |
| 2026-05-07 04:31 | 8.81511 | -79.24612 | 18000 ft | 293 kts | 104° |
| 2026-05-07 04:31 | 8.80980 | -79.22627 | 18003 ft | 293 kts | 102° |
| 2026-05-07 04:31 | 8.80503 | -79.20628 | 18000 ft | 292 kts | 101° |
| 2026-05-07 04:32 | 8.80058 | -79.18644 | 17999 ft | 293 kts | 102° |
| 2026-05-07 04:32 | 8.79236 | -79.16777 | 17976 ft | 295 kts | 126° |
| 2026-05-07 04:32 | 8.77657 | -79.15443 | 17993 ft | 302 kts | 152° |
| 2026-05-07 04:32 | 8.75606 | -79.14942 | 17995 ft | 311 kts | 177° |
| 2026-05-07 04:33 | 8.73474 | -79.15387 | 17996 ft | 319 kts | 202° |
| 2026-05-07 04:33 | 8.71663 | -79.16694 | 17995 ft | 325 kts | 226° |
| 2026-05-07 04:33 | 8.70475 | -79.18635 | 17989 ft | 328 kts | 250° |
| 2026-05-07 04:33 | 8.70145 | -79.20891 | 17986 ft | 327 kts | 277° |
| 2026-05-07 04:34 | 8.70519 | -79.23159 | 18004 ft | 329 kts | 281° |
| 2026-05-07 04:34 | 8.70887 | -79.25439 | 17993 ft | 329 kts | 281° |
| 2026-05-07 04:34 | 8.71261 | -79.27693 | 17998 ft | 329 kts | 281° |
| 2026-05-07 04:34 | 8.71779 | -79.29968 | 17973 ft | 326 kts | 295° |
| 2026-05-07 04:35 | 8.72958 | -79.31845 | 17990 ft | 319 kts | 318° |
| 2026-05-07 04:35 | 8.74735 | -79.33130 | 17999 ft | 312 kts | 341° |
| 2026-05-07 04:35 | 8.76815 | -79.33666 | 17623 ft | 309 kts | 2° |
| 2026-05-07 04:35 | 8.78872 | -79.33333 | 17415 ft | 294 kts | 25° |
| 2026-05-07 04:36 | 8.80567 | -79.32245 | 17008 ft | 287 kts | 48° |
| 2026-05-07 04:36 | 8.81644 | -79.30582 | 16631 ft | 283 kts | 71° |
| 2026-05-07 04:36 | 8.81971 | -79.28638 | 16240 ft | 282 kts | 92° |
| 2026-05-07 04:36 | 8.81672 | -79.26675 | 15847 ft | 283 kts | 100° |
| 2026-05-07 04:37 | 8.81165 | -79.24755 | 15489 ft | 283 kts | 105° |
| 2026-05-07 04:37 | 8.80617 | -79.22845 | 15126 ft | 282 kts | 104° |
| 2026-05-07 04:37 | 8.80104 | -79.20930 | 14804 ft | 280 kts | 103° |
| 2026-05-07 04:37 | 8.79616 | -79.19028 | 14457 ft | 280 kts | 105° |
| 2026-05-07 04:38 | 8.78727 | -79.17295 | 14121 ft | 280 kts | 129° |
| 2026-05-07 04:38 | 8.77197 | -79.16126 | 13772 ft | 283 kts | 154° |
| 2026-05-07 04:38 | 8.75272 | -79.15720 | 13409 ft | 287 kts | 179° |
| 2026-05-07 04:38 | 8.73323 | -79.16160 | 13060 ft | 291 kts | 203° |
| 2026-05-07 04:39 | 8.71684 | -79.17348 | 12715 ft | 294 kts | 226° |
| 2026-05-07 04:39 | 8.70605 | -79.19095 | 12365 ft | 295 kts | 249° |
| 2026-05-07 04:39 | 8.70289 | -79.21126 | 12031 ft | 294 kts | 274° |
| 2026-05-07 04:39 | 8.70560 | -79.23176 | 11674 ft | 294 kts | 278° |
| 2026-05-07 04:40 | 8.70871 | -79.25211 | 11388 ft | 292 kts | 279° |
| 2026-05-07 04:40 | 8.71195 | -79.27233 | 11068 ft | 290 kts | 279° |
| 2026-05-07 04:40 | 8.71561 | -79.29229 | 10778 ft | 288 kts | 288° |
| 2026-05-07 04:40 | 8.72505 | -79.30968 | 10492 ft | 281 kts | 314° |
| 2026-05-07 04:41 | 8.74067 | -79.32090 | 10146 ft | 275 kts | 341° |
| 2026-05-07 04:41 | 8.75921 | -79.32397 | 9830 ft | 270 kts | 6° |
| 2026-05-07 04:41 | 8.77690 | -79.31866 | 9506 ft | 265 kts | 31° |
| 2026-05-07 04:41 | 8.79053 | -79.30640 | 9176 ft | 263 kts | 55° |
| 2026-05-07 04:42 | 8.79753 | -79.28951 | 8834 ft | 263 kts | 81° |
| 2026-05-07 04:42 | 8.79684 | -79.27102 | 8502 ft | 265 kts | 99° |
| 2026-05-07 04:42 | 8.79338 | -79.25272 | 8163 ft | 265 kts | 99° |
| 2026-05-07 04:42 | 8.79225 | -79.24681 | 8069 ft | 264 kts | 99° |